createdAt,value
2018-02-20T00:01:03.530Z,2.94
2018-02-20T00:03:31.107Z,2.88
2018-02-20T00:05:58.676Z,2.78
2018-02-20T00:08:26.282Z,2.84
2018-02-20T00:10:53.855Z,2.86
2018-02-20T00:13:21.417Z,2.91
2018-02-20T00:15:48.989Z,2.88
2018-02-20T00:18:16.554Z,2.91
2018-02-20T00:20:44.140Z,2.87
2018-02-20T00:23:11.710Z,2.84
2018-02-20T00:25:39.328Z,2.85
2018-02-20T00:28:06.896Z,2.86
2018-02-20T00:30:34.468Z,2.84
2018-02-20T00:33:02.044Z,2.80
2018-02-20T00:35:29.608Z,2.83
2018-02-20T00:37:57.186Z,2.92
2018-02-20T00:40:24.750Z,2.85
2018-02-20T00:42:52.363Z,2.85
2018-02-20T00:45:19.934Z,2.81
2018-02-20T00:47:47.503Z,2.86
2018-02-20T00:50:15.084Z,2.91
2018-02-20T00:52:42.649Z,2.90
2018-02-20T00:55:10.217Z,2.85
2018-02-20T00:57:37.789Z,2.86
2018-02-20T01:00:05.407Z,2.86
2018-02-20T01:02:32.973Z,2.87
2018-02-20T01:05:00.538Z,2.83
2018-02-20T01:07:28.110Z,2.79
2018-02-20T01:09:55.655Z,2.87
2018-02-20T01:12:23.227Z,2.80
2018-02-20T01:14:50.794Z,2.82
2018-02-20T01:17:18.404Z,2.80
2018-02-20T01:19:45.971Z,2.82
2018-02-20T01:22:13.545Z,2.72
2018-02-20T01:24:41.123Z,2.73
2018-02-20T01:27:08.692Z,2.68
2018-02-20T01:29:36.266Z,2.72
2018-02-20T01:32:03.830Z,2.74
2018-02-20T01:34:31.442Z,2.73
2018-02-20T01:36:58.991Z,2.73
2018-02-20T01:39:26.558Z,2.76
2018-02-20T01:41:54.134Z,2.75
2018-02-20T01:44:21.710Z,2.75
2018-02-20T01:46:49.310Z,2.71
2018-02-20T01:49:16.879Z,2.71
2018-02-20T01:51:44.512Z,2.77
2018-02-20T01:54:12.077Z,2.78
2018-02-20T01:56:39.719Z,2.70
2018-02-20T01:59:07.297Z,2.65
2018-02-20T02:01:34.926Z,2.73
2018-02-20T02:04:02.499Z,2.76
2018-02-20T02:06:30.123Z,2.77
2018-02-20T02:08:57.751Z,2.69
2018-02-20T02:11:25.326Z,2.70
2018-02-20T02:13:52.892Z,2.69
2018-02-20T02:16:20.466Z,2.71
2018-02-20T02:18:48.109Z,2.74
2018-02-20T02:21:15.754Z,2.68
2018-02-20T02:23:43.320Z,2.69
2018-02-20T02:26:10.951Z,2.64
2018-02-20T02:28:38.601Z,2.65
2018-02-20T02:31:06.184Z,2.65
2018-02-20T02:33:33.768Z,2.67
2018-02-20T02:36:01.385Z,2.70
2018-02-20T02:38:29.203Z,2.70
2018-02-20T02:40:56.778Z,2.67
2018-02-20T02:43:24.485Z,2.62
2018-02-20T02:45:52.116Z,2.66
2018-02-20T02:48:19.756Z,2.67
2018-02-20T02:50:47.338Z,2.68
2018-02-20T02:53:14.915Z,2.67
2018-02-20T02:55:42.499Z,2.70
2018-02-20T02:58:10.074Z,2.68
2018-02-20T03:00:37.698Z,2.63
2018-02-20T03:03:05.299Z,2.70
2018-02-20T03:05:32.868Z,2.70
2018-02-20T03:08:00.430Z,2.70
2018-02-20T03:10:27.991Z,2.68
2018-02-20T03:12:55.566Z,2.71
2018-02-20T03:15:23.133Z,2.69
2018-02-20T03:17:50.810Z,2.74
2018-02-20T03:20:18.439Z,2.69
2018-02-20T03:22:46.010Z,2.73
2018-02-20T03:25:13.595Z,2.70
2018-02-20T03:27:41.162Z,2.65
2018-02-20T03:30:08.955Z,2.70
2018-02-20T03:32:36.597Z,2.69
2018-02-20T03:35:04.212Z,2.72
2018-02-20T03:37:31.800Z,2.66
2018-02-20T03:39:59.374Z,2.67
2018-02-20T03:42:27.015Z,2.60
2018-02-20T03:44:54.587Z,2.63
2018-02-20T03:47:22.175Z,2.66
2018-02-20T03:49:49.742Z,2.70
2018-02-20T03:52:17.373Z,2.72
2018-02-20T03:54:44.945Z,2.65
2018-02-20T03:57:12.514Z,2.67
2018-02-20T03:59:40.158Z,2.70
2018-02-20T04:02:07.731Z,2.72
2018-02-20T04:04:35.366Z,2.71
2018-02-20T04:07:02.994Z,2.68
2018-02-20T04:09:30.621Z,2.68
2018-02-20T04:11:58.530Z,2.71
2018-02-20T04:14:26.111Z,2.68
2018-02-20T04:16:53.922Z,2.70
2018-02-20T04:19:21.512Z,2.67
2018-02-20T04:21:49.115Z,2.65
2018-02-20T04:24:17.078Z,2.70
2018-02-20T04:26:44.730Z,2.69
2018-02-20T04:29:12.334Z,2.62
2018-02-20T04:31:39.934Z,2.59
2018-02-20T04:34:07.519Z,2.61
2018-02-20T04:36:35.067Z,2.60
2018-02-20T04:39:02.643Z,2.61
2018-02-20T04:41:30.215Z,2.65
2018-02-20T04:43:57.851Z,2.61
2018-02-20T04:46:25.426Z,2.65
2018-02-20T04:48:53.075Z,2.66
2018-02-20T04:51:20.650Z,2.70
2018-02-20T04:53:48.221Z,2.67
2018-02-20T04:56:15.858Z,2.67
2018-02-20T04:58:43.493Z,2.67
2018-02-20T05:01:20.570Z,2.61
2018-02-20T05:03:48.155Z,2.61
2018-02-20T05:06:15.792Z,2.56
2018-02-20T05:08:43.375Z,2.56
2018-02-20T05:11:10.943Z,2.60
2018-02-20T05:13:38.571Z,2.59
2018-02-20T05:16:06.155Z,2.54
2018-02-20T05:18:33.736Z,2.59
2018-02-20T05:21:01.314Z,2.62
2018-02-20T05:23:28.883Z,2.66
2018-02-20T05:25:56.510Z,2.64
2018-02-20T05:28:24.114Z,2.66
2018-02-20T05:30:51.673Z,2.70
2018-02-20T05:33:19.247Z,2.60
2018-02-20T05:35:46.809Z,2.69
2018-02-20T05:38:14.449Z,2.67
2018-02-20T05:40:42.028Z,2.61
2018-02-20T05:43:09.608Z,2.70
2018-02-20T05:45:37.195Z,2.68
2018-02-20T05:48:04.820Z,2.67
2018-02-20T05:50:32.469Z,2.68
2018-02-20T05:53:00.042Z,2.75
2018-02-20T05:55:27.627Z,2.71
2018-02-20T05:57:55.231Z,2.73
2018-02-20T06:00:22.827Z,2.70
2018-02-20T06:02:50.450Z,2.74
2018-02-20T06:05:18.096Z,2.78
2018-02-20T06:07:45.670Z,2.75
2018-02-20T06:10:13.251Z,2.73
2018-02-20T06:12:40.826Z,2.79
2018-02-20T06:15:08.458Z,2.82
2018-02-20T06:17:36.043Z,2.90
2018-02-20T06:20:03.637Z,2.89
2018-02-20T06:22:31.225Z,2.94
2018-02-20T06:24:58.800Z,2.97
2018-02-20T06:27:26.440Z,3.03
2018-02-20T06:29:54.072Z,3.06
2018-02-20T06:32:21.700Z,3.03
2018-02-20T06:34:49.289Z,2.99
2018-02-20T06:37:16.854Z,3.10
2018-02-20T06:39:44.429Z,3.14
2018-02-20T06:42:12.000Z,3.15
2018-02-20T06:44:39.628Z,3.13
2018-02-20T06:47:07.205Z,3.17
2018-02-20T06:49:34.765Z,3.25
2018-02-20T06:52:02.340Z,3.29
2018-02-20T06:54:29.909Z,3.23
2018-02-20T06:56:57.498Z,3.30
2018-02-20T06:59:25.074Z,3.31
2018-02-20T07:01:52.682Z,3.35
2018-02-20T07:04:20.251Z,3.44
2018-02-20T07:06:47.912Z,3.44
2018-02-20T07:09:15.490Z,3.44
2018-02-20T07:11:43.057Z,3.50
2018-02-20T07:14:10.693Z,3.55
2018-02-20T07:16:38.318Z,3.45
2018-02-20T07:19:05.942Z,3.54
2018-02-20T07:21:33.570Z,3.63
2018-02-20T07:24:01.133Z,3.69
2018-02-20T07:26:28.768Z,3.59
2018-02-20T07:28:56.406Z,3.50
2018-02-20T07:31:23.977Z,3.67
2018-02-20T07:33:51.542Z,3.79
2018-02-20T07:36:19.182Z,3.91
2018-02-20T07:38:46.785Z,3.95
2018-02-20T07:41:14.356Z,3.96
2018-02-20T07:43:41.932Z,3.89
2018-02-20T07:46:09.494Z,3.84
2018-02-20T07:48:37.058Z,3.98
2018-02-20T07:51:04.687Z,3.96
2018-02-20T07:53:32.307Z,3.87
2018-02-20T07:55:59.877Z,3.97
2018-02-20T07:58:27.442Z,3.96
2018-02-20T08:00:55.013Z,3.90
2018-02-20T08:03:22.575Z,4.02
2018-02-20T08:05:50.150Z,4.01
2018-02-20T08:08:17.774Z,4.12
2018-02-20T08:10:45.392Z,4.20
2018-02-20T08:13:12.938Z,4.24
2018-02-20T08:15:40.563Z,4.37
2018-02-20T08:18:08.139Z,4.46
2018-02-20T08:20:35.710Z,4.51
2018-02-20T08:23:03.282Z,4.47
2018-02-20T08:25:30.931Z,4.54
2018-02-20T08:27:58.618Z,4.61
2018-02-20T08:30:26.243Z,4.62
2018-02-20T08:32:53.874Z,4.62
2018-02-20T08:35:21.431Z,4.65
2018-02-20T08:37:48.991Z,4.61
2018-02-20T08:40:16.612Z,4.53
2018-02-20T08:42:44.175Z,4.58
2018-02-20T08:45:11.721Z,4.56
2018-02-20T08:47:39.300Z,4.72
2018-02-20T08:50:06.845Z,4.76
2018-02-20T08:52:34.421Z,4.62
2018-02-20T08:55:02.051Z,4.66
2018-02-20T08:57:29.672Z,4.65
2018-02-20T08:59:57.303Z,4.67
2018-02-20T09:02:24.862Z,4.76
2018-02-20T09:04:52.487Z,4.79
2018-02-20T09:07:20.108Z,4.96
2018-02-20T09:09:47.723Z,4.90
2018-02-20T09:12:15.271Z,4.98
2018-02-20T09:14:42.851Z,4.97
2018-02-20T09:17:10.464Z,5.05
2018-02-20T09:19:38.029Z,4.98
2018-02-20T09:22:05.629Z,4.85
2018-02-20T09:24:33.255Z,4.95
2018-02-20T09:27:00.866Z,4.96
2018-02-20T09:29:28.481Z,4.98
2018-02-20T09:31:56.117Z,5.06
2018-02-20T09:34:23.693Z,5.04
2018-02-20T09:36:51.320Z,5.09
2018-02-20T09:39:18.971Z,5.16
2018-02-20T09:41:46.532Z,5.17
2018-02-20T09:44:14.284Z,5.19
2018-02-20T09:46:41.846Z,5.27
2018-02-20T09:49:09.419Z,5.24
2018-02-20T09:51:37.073Z,5.40
2018-02-20T09:54:04.683Z,5.52
2018-02-20T09:56:32.246Z,5.55
2018-02-20T09:58:59.816Z,5.48
2018-02-20T10:01:27.502Z,5.42
2018-02-20T10:03:55.177Z,5.47
2018-02-20T10:06:22.727Z,5.31
2018-02-20T10:08:50.302Z,5.47
2018-02-20T10:11:17.873Z,5.54
2018-02-20T10:13:45.516Z,5.61
2018-02-20T10:16:13.093Z,5.64
2018-02-20T10:18:40.724Z,5.63
2018-02-20T10:21:08.347Z,5.57
2018-02-20T10:23:35.972Z,5.53
2018-02-20T10:26:03.557Z,5.69
2018-02-20T10:28:31.183Z,5.78
2018-02-20T10:30:58.759Z,5.70
2018-02-20T10:33:26.324Z,5.70
2018-02-20T10:35:54.010Z,5.72
2018-02-20T10:38:21.585Z,5.58
2018-02-20T10:40:49.155Z,5.72
2018-02-20T10:43:16.732Z,6.03
2018-02-20T10:45:44.291Z,6.04
2018-02-20T10:48:11.862Z,5.94
2018-02-20T10:50:39.443Z,5.92
2018-02-20T10:53:07.104Z,5.90
2018-02-20T10:55:34.738Z,5.89
2018-02-20T10:58:02.318Z,5.92
2018-02-20T11:00:29.894Z,5.79
2018-02-20T11:02:57.454Z,5.94
2018-02-20T11:05:25.102Z,6.15
2018-02-20T11:07:52.666Z,6.28
2018-02-20T11:10:20.287Z,6.23
2018-02-20T11:12:47.846Z,6.24
2018-02-20T11:15:15.416Z,6.23
2018-02-20T11:17:42.986Z,6.43
2018-02-20T11:20:10.611Z,6.26
2018-02-20T11:22:38.180Z,6.23
2018-02-20T11:25:05.798Z,6.12
2018-02-20T11:27:33.427Z,6.12
2018-02-20T11:30:01.051Z,5.91
2018-02-20T11:32:28.615Z,5.86
2018-02-20T11:34:56.260Z,5.86
2018-02-20T11:37:23.826Z,5.70
2018-02-20T11:40:02.161Z,5.69
2018-02-20T11:42:30.323Z,5.53
2018-02-20T11:44:58.027Z,5.40
2018-02-20T11:47:25.602Z,5.54
2018-02-20T11:49:53.172Z,5.53
2018-02-20T11:52:20.758Z,5.62
2018-02-20T11:54:48.358Z,5.63
2018-02-20T11:57:15.940Z,5.66
2018-02-20T11:59:43.517Z,5.71
2018-02-20T12:02:11.213Z,5.71
2018-02-20T12:04:39.040Z,5.57
2018-02-20T12:07:06.942Z,5.75
2018-02-20T12:09:34.614Z,5.50
2018-02-20T12:12:02.237Z,5.56
2018-02-20T12:14:29.893Z,5.54
2018-02-20T12:16:57.465Z,5.64
2018-02-20T12:19:25.151Z,5.66
2018-02-20T12:21:52.723Z,5.71
2018-02-20T12:24:20.272Z,5.79
2018-02-20T12:26:47.896Z,5.76
2018-02-20T12:29:15.603Z,5.74
2018-02-20T12:31:43.244Z,5.78
2018-02-20T12:34:10.886Z,5.73
2018-02-20T12:36:38.526Z,5.67
2018-02-20T12:39:06.110Z,5.58
2018-02-20T12:41:33.679Z,5.71
2018-02-20T12:44:01.250Z,5.61
2018-02-20T12:46:28.886Z,5.61
2018-02-20T12:48:56.476Z,5.55
2018-02-20T12:51:24.050Z,5.65
2018-02-20T12:53:51.727Z,5.72
2018-02-20T12:56:19.302Z,5.88
2018-02-20T12:58:46.861Z,5.74
2018-02-20T13:01:14.510Z,5.72
2018-02-20T13:03:42.082Z,5.70
2018-02-20T13:06:09.710Z,5.70
2018-02-20T13:08:37.340Z,5.83
2018-02-20T13:11:04.970Z,5.73
2018-02-20T13:13:32.595Z,5.67
2018-02-20T13:16:00.154Z,5.66
2018-02-20T13:18:27.724Z,5.71
2018-02-20T13:23:53.594Z,5.48
2018-02-20T13:26:21.164Z,5.46
2018-02-20T13:28:48.735Z,5.38
2018-02-20T13:31:16.309Z,5.43
2018-02-20T13:33:43.891Z,5.44
2018-02-20T13:36:11.459Z,5.45
2018-02-20T13:38:39.058Z,5.42
2018-02-20T13:41:06.633Z,5.44
2018-02-20T13:43:34.202Z,5.37
2018-02-20T13:46:01.827Z,5.35
2018-02-20T13:48:29.410Z,5.39
2018-02-20T13:50:57.033Z,5.42
2018-02-20T13:53:24.595Z,5.50
2018-02-20T13:55:52.862Z,5.47
2018-02-20T13:58:20.418Z,5.48
2018-02-20T14:00:48.074Z,5.56
2018-02-20T14:03:15.635Z,5.57
2018-02-20T14:05:43.347Z,5.46
2018-02-20T14:08:10.914Z,5.42
2018-02-20T14:10:38.474Z,5.46
2018-02-20T14:13:06.054Z,5.37
2018-02-20T14:15:33.675Z,5.42
2018-02-20T14:18:01.323Z,5.37
2018-02-20T14:20:28.886Z,5.34
2018-02-20T14:22:56.486Z,5.29
2018-02-20T14:25:24.064Z,5.14
2018-02-20T14:27:51.619Z,5.19
2018-02-20T14:30:19.215Z,5.18
2018-02-20T14:32:46.866Z,5.18
2018-02-20T14:37:48.304Z,5.20
2018-02-20T14:40:15.858Z,5.18
2018-02-20T14:42:43.441Z,5.23
2018-02-20T14:45:11.154Z,5.15
2018-02-20T14:47:38.941Z,5.23
2018-02-20T14:50:06.515Z,5.19
2018-02-20T14:52:34.154Z,5.17
2018-02-20T14:55:01.724Z,5.11
2018-02-20T14:57:29.351Z,5.09
2018-02-20T14:59:57.011Z,5.11
2018-02-20T15:02:25.493Z,5.14
2018-02-20T15:04:53.606Z,5.07
2018-02-20T15:07:21.184Z,5.10
2018-02-20T15:09:48.807Z,5.21
2018-02-20T15:12:16.479Z,5.21
2018-02-20T15:14:44.042Z,5.10
2018-02-20T15:17:11.633Z,5.18
2018-02-20T15:19:39.210Z,5.16
2018-02-20T15:22:06.774Z,5.18
2018-02-20T15:24:34.398Z,5.15
2018-02-20T15:27:01.960Z,5.11
2018-02-20T15:29:29.585Z,5.11
2018-02-20T15:31:57.230Z,5.03
2018-02-20T15:34:25.154Z,5.04
2018-02-20T15:36:52.774Z,4.89
2018-02-20T15:39:20.422Z,4.85
2018-02-20T15:41:47.987Z,4.86
2018-02-20T15:44:15.621Z,4.86
2018-02-20T15:46:43.195Z,4.80
2018-02-20T15:49:10.869Z,4.81
2018-02-20T15:51:38.423Z,4.89
2018-02-20T15:54:05.980Z,4.90
2018-02-20T15:56:33.608Z,4.90
2018-02-20T15:59:01.247Z,4.90
2018-02-20T16:01:28.872Z,4.89
2018-02-20T16:03:56.430Z,4.94
2018-02-20T16:06:24.110Z,5.00
2018-02-20T16:08:51.653Z,4.96
2018-02-20T16:11:19.242Z,4.98
2018-02-20T16:13:46.924Z,4.99
2018-02-20T16:16:15.034Z,5.00
2018-02-20T16:18:42.672Z,5.02
2018-02-20T16:21:10.305Z,5.01
2018-02-20T16:26:11.623Z,4.89
2018-02-20T16:28:39.288Z,4.95
2018-02-20T16:31:06.859Z,4.90
2018-02-20T16:33:34.618Z,5.01
2018-02-20T16:36:02.180Z,5.00
2018-02-20T16:38:29.831Z,5.00
2018-02-20T16:40:57.454Z,4.98
2018-02-20T16:43:25.095Z,5.00
2018-02-20T16:45:53.498Z,5.01
2018-02-20T16:48:21.128Z,5.02
2018-02-20T16:50:48.715Z,5.05
2018-02-20T16:53:16.367Z,5.10
2018-02-20T16:55:44.037Z,5.09
2018-02-20T16:58:11.615Z,5.08
2018-02-20T17:00:39.175Z,5.04
2018-02-20T17:03:06.781Z,5.02
2018-02-20T17:05:34.342Z,5.02
2018-02-20T17:08:01.911Z,4.94
2018-02-20T17:10:29.471Z,4.86
2018-02-20T17:12:57.224Z,4.83
2018-02-20T17:15:25.290Z,4.86
2018-02-20T17:17:52.971Z,4.82
2018-02-20T17:20:20.564Z,4.87
2018-02-20T17:22:48.132Z,4.93
2018-02-20T17:25:15.712Z,4.99
2018-02-20T17:27:43.357Z,4.89
2018-02-20T17:30:10.947Z,4.92
2018-02-20T17:32:38.531Z,4.84
2018-02-20T17:35:06.143Z,4.86
2018-02-20T17:37:33.724Z,4.89
2018-02-20T17:40:01.361Z,4.83
2018-02-20T17:42:29.001Z,4.82
2018-02-20T17:44:56.621Z,4.82
2018-02-20T17:47:24.282Z,4.79
2018-02-20T17:49:51.867Z,4.86
2018-02-20T17:52:19.500Z,4.87
2018-02-20T17:54:47.131Z,4.82
2018-02-20T17:57:14.698Z,4.81
2018-02-20T17:59:42.260Z,4.81
2018-02-20T18:02:09.827Z,4.85
2018-02-20T18:04:37.405Z,4.82
2018-02-20T18:07:05.028Z,4.68
2018-02-20T18:09:32.605Z,4.75
2018-02-20T18:12:00.185Z,4.85
2018-02-20T18:14:27.807Z,4.82
2018-02-20T18:16:55.385Z,4.90
2018-02-20T18:19:22.952Z,4.86
2018-02-20T18:21:50.531Z,4.87
2018-02-20T18:24:18.163Z,4.92
2018-02-20T18:26:45.728Z,4.90
2018-02-20T18:29:13.304Z,4.92
2018-02-20T18:31:40.918Z,4.91
2018-02-20T18:34:08.492Z,4.98
2018-02-20T18:36:36.124Z,5.02
2018-02-20T18:39:03.763Z,4.95
2018-02-20T18:41:31.431Z,4.94
2018-02-20T18:43:58.997Z,4.95
2018-02-20T18:46:26.563Z,4.92
2018-02-20T18:48:54.208Z,4.94
2018-02-20T18:51:21.798Z,4.92
2018-02-20T18:53:49.354Z,4.86
2018-02-20T18:56:16.923Z,4.89
2018-02-20T18:58:44.555Z,4.90
2018-02-20T19:01:12.180Z,4.82
2018-02-20T19:03:39.747Z,4.76
2018-02-20T19:06:07.319Z,4.84
2018-02-20T19:08:34.900Z,4.82
2018-02-20T19:11:02.568Z,4.86
2018-02-20T19:13:30.189Z,4.89
2018-02-20T19:15:57.827Z,4.78
2018-02-20T19:18:25.504Z,4.78
2018-02-20T19:20:53.067Z,4.67
2018-02-20T19:23:20.697Z,4.70
2018-02-20T19:25:48.268Z,4.71
2018-02-20T19:28:15.887Z,4.70
2018-02-20T19:30:43.466Z,4.75
2018-02-20T19:33:11.068Z,4.70
2018-02-20T19:35:38.714Z,4.72
2018-02-20T19:38:06.279Z,4.74
2018-02-20T19:40:33.876Z,4.77
2018-02-20T19:43:01.463Z,4.71
2018-02-20T19:45:29.094Z,4.78
2018-02-20T19:47:56.667Z,4.76
2018-02-20T19:50:24.234Z,4.67
2018-02-20T19:52:51.862Z,4.65
2018-02-20T19:55:19.439Z,4.71
2018-02-20T19:57:47.084Z,4.67
2018-02-20T20:00:14.795Z,4.73
2018-02-20T20:02:42.363Z,4.70
2018-02-20T20:05:09.992Z,4.70
2018-02-20T20:07:37.568Z,4.71
2018-02-20T20:10:05.199Z,4.78
2018-02-20T20:12:32.830Z,4.85
2018-02-20T20:15:00.396Z,4.80
2018-02-20T20:17:27.975Z,4.78
2018-02-20T20:19:55.627Z,4.78
2018-02-20T20:22:23.197Z,4.79
2018-02-20T20:24:50.905Z,4.81
2018-02-20T20:27:18.583Z,4.89
2018-02-20T20:29:46.191Z,4.86
2018-02-20T20:32:13.828Z,4.92
2018-02-20T20:34:41.470Z,4.91
2018-02-20T20:37:09.097Z,4.98
2018-02-20T20:39:36.667Z,4.90
2018-02-20T20:42:04.231Z,4.87
2018-02-20T20:44:31.807Z,4.86
2018-02-20T20:46:59.431Z,4.91
2018-02-20T20:49:27.053Z,4.95
2018-02-20T20:51:54.676Z,4.95
2018-02-20T20:54:22.305Z,4.93
2018-02-20T20:56:49.963Z,4.99
2018-02-20T20:59:17.548Z,5.03
2018-02-20T21:01:45.174Z,5.04
2018-02-20T21:04:12.799Z,5.04
2018-02-20T21:06:40.458Z,5.01
2018-02-20T21:09:08.042Z,5.03
2018-02-20T21:11:35.616Z,4.96
2018-02-20T21:14:03.243Z,4.98
2018-02-20T21:16:30.819Z,4.94
2018-02-20T21:18:58.384Z,5.01
2018-02-20T21:21:26.014Z,5.01
2018-02-20T21:23:53.620Z,4.98
2018-02-20T21:26:21.316Z,4.97
2018-02-20T21:28:48.897Z,5.02
2018-02-20T21:31:16.528Z,5.01
2018-02-20T21:33:44.100Z,5.05
2018-02-20T21:36:11.899Z,5.02
2018-02-20T21:38:39.553Z,5.02
2018-02-20T21:41:07.160Z,5.07
2018-02-20T21:43:34.812Z,4.99
2018-02-20T21:46:02.405Z,5.10
2018-02-20T21:48:30.033Z,5.10
2018-02-20T21:50:57.659Z,5.06
2018-02-20T21:53:25.296Z,5.10
2018-02-20T21:55:52.873Z,5.09
2018-02-20T21:58:20.463Z,5.06
2018-02-20T22:00:48.085Z,5.03
2018-02-20T22:03:15.789Z,5.03
2018-02-20T22:05:43.358Z,5.02
2018-02-20T22:08:10.927Z,5.11
2018-02-20T22:10:38.570Z,5.10
2018-02-20T22:13:06.130Z,5.14
2018-02-20T22:15:33.813Z,5.10
2018-02-20T22:18:01.391Z,5.05
2018-02-20T22:20:28.962Z,5.11
2018-02-20T22:22:56.523Z,5.01
2018-02-20T22:25:24.087Z,5.08
2018-02-20T22:27:51.760Z,5.15
2018-02-20T22:30:19.392Z,5.06
2018-02-20T22:32:46.961Z,5.06
2018-02-20T22:35:14.537Z,5.11
2018-02-20T22:37:42.096Z,5.13
2018-02-20T22:40:09.750Z,5.07
2018-02-20T22:42:37.375Z,5.12
2018-02-20T22:45:04.934Z,5.17
2018-02-20T22:47:32.555Z,5.04
2018-02-20T22:50:00.116Z,5.10
2018-02-20T22:52:27.724Z,5.14
2018-02-20T22:54:55.282Z,5.13
2018-02-20T22:57:22.895Z,5.14
2018-02-20T22:59:50.476Z,5.16
2018-02-20T23:02:18.096Z,5.10
2018-02-20T23:04:45.718Z,5.10
2018-02-20T23:07:13.248Z,5.12
2018-02-20T23:09:40.811Z,5.06
2018-02-20T23:12:08.466Z,5.05
2018-02-20T23:14:36.101Z,5.02
2018-02-20T23:17:03.726Z,5.10
2018-02-20T23:19:31.278Z,5.05
2018-02-20T23:21:58.839Z,5.06
2018-02-20T23:24:26.404Z,5.06
2018-02-20T23:26:53.958Z,5.04
2018-02-20T23:29:21.617Z,5.01
2018-02-20T23:31:49.174Z,4.96
2018-02-20T23:36:58.807Z,5.05
2018-02-20T23:39:26.379Z,5.04
2018-02-20T23:41:53.954Z,5.05
2018-02-20T23:44:21.506Z,5.09
2018-02-20T23:46:49.123Z,5.05
2018-02-20T23:49:16.695Z,5.14
2018-02-20T23:51:44.243Z,5.13
2018-02-20T23:54:11.828Z,5.12
2018-02-20T23:56:39.446Z,5.18
2018-02-20T23:59:07.018Z,5.08
